createdAt,value
2023-09-01T00:00:15.948Z,54.73
2023-09-01T00:02:42.338Z,53.95
2023-09-01T00:05:08.978Z,54.17
2023-09-01T00:07:35.378Z,54.51
2023-09-01T00:10:01.723Z,54.50
2023-09-01T00:12:28.089Z,54.70
2023-09-01T00:14:54.657Z,55.16
2023-09-01T00:17:21.668Z,55.24
2023-09-01T00:19:48.209Z,55.07
2023-09-01T00:22:14.581Z,55.15
2023-09-01T00:24:40.944Z,54.68
2023-09-01T00:27:07.350Z,54.22
2023-09-01T00:29:35.427Z,54.47
2023-09-01T00:32:02.232Z,54.21
2023-09-01T00:34:30.455Z,54.51
2023-09-01T00:36:56.789Z,54.74
2023-09-01T00:39:23.168Z,54.27
2023-09-01T00:41:49.529Z,54.21
2023-09-01T00:44:15.985Z,53.88
2023-09-01T00:46:47.318Z,53.85
2023-09-01T00:49:13.905Z,53.92
2023-09-01T00:51:40.274Z,54.25
2023-09-01T00:54:06.686Z,53.55
2023-09-01T00:56:33.107Z,53.25
2023-09-01T00:58:59.457Z,54.08
2023-09-01T01:01:25.856Z,53.89
2023-09-01T01:03:52.635Z,53.51
2023-09-01T01:06:26.350Z,53.67
2023-09-01T01:08:57.964Z,53.41
2023-09-01T01:11:28.162Z,53.33
2023-09-01T01:13:55.196Z,53.14
2023-09-01T01:16:21.552Z,53.44
2023-09-01T01:18:48.958Z,53.20
2023-09-01T01:21:20.185Z,53.25
2023-09-01T01:23:46.538Z,53.49
2023-09-01T01:26:16.243Z,53.64
2023-09-01T01:28:42.808Z,53.52
2023-09-01T01:31:09.249Z,53.54
2023-09-01T01:33:48.058Z,52.96
2023-09-01T01:36:20.552Z,53.67
2023-09-01T01:38:51.401Z,53.76
2023-09-01T01:41:21.293Z,54.22
2023-09-01T01:43:47.630Z,53.22
2023-09-01T01:46:14.036Z,53.93
2023-09-01T01:48:40.530Z,53.95
2023-09-01T01:51:06.970Z,54.66
2023-09-01T01:53:36.346Z,54.55
2023-09-01T01:56:04.044Z,54.32
2023-09-01T01:58:30.705Z,54.03
2023-09-01T02:00:57.119Z,54.14
2023-09-01T02:03:23.498Z,54.04
2023-09-01T02:05:52.956Z,54.23
2023-09-01T02:08:20.385Z,54.45
2023-09-01T02:10:48.367Z,54.76
2023-09-01T02:13:14.726Z,54.95
2023-09-01T02:15:41.166Z,54.83
2023-09-01T02:18:09.412Z,54.80
2023-09-01T02:20:36.122Z,54.93
2023-09-01T02:23:02.461Z,55.23
2023-09-01T02:25:28.813Z,55.26
2023-09-01T02:27:55.698Z,55.32
2023-09-01T02:30:22.066Z,55.19
2023-09-01T02:32:48.464Z,55.12
2023-09-01T02:35:14.910Z,55.16
2023-09-01T02:37:41.261Z,54.90
2023-09-01T02:40:12.138Z,54.75
2023-09-01T02:42:39.493Z,55.14
2023-09-01T02:45:06.364Z,55.48
2023-09-01T02:47:32.742Z,55.35
2023-09-01T02:49:59.159Z,55.44
2023-09-01T02:52:25.593Z,55.08
2023-09-01T02:54:51.936Z,55.08
2023-09-01T02:57:18.318Z,55.14
2023-09-01T02:59:44.687Z,54.86
2023-09-01T03:02:11.045Z,55.22
2023-09-01T03:04:38.337Z,55.32
2023-09-01T03:07:04.779Z,54.99
2023-09-01T03:09:31.147Z,55.12
2023-09-01T03:11:57.511Z,54.86
2023-09-01T03:14:25.050Z,55.24
2023-09-01T03:16:51.461Z,55.19
2023-09-01T03:19:17.871Z,55.25
2023-09-01T03:21:44.229Z,55.60
2023-09-01T03:24:10.572Z,55.57
2023-09-01T03:26:36.958Z,55.61
2023-09-01T03:29:04.705Z,55.42
2023-09-01T03:31:32.413Z,55.50
2023-09-01T03:33:58.872Z,55.72
2023-09-01T03:36:25.313Z,55.94
2023-09-01T03:38:51.833Z,55.96
2023-09-01T03:41:18.167Z,56.21
2023-09-01T03:43:44.522Z,56.18
2023-09-01T03:46:11.031Z,56.09
2023-09-01T03:48:37.500Z,55.80
2023-09-01T03:51:07.174Z,55.84
2023-09-01T03:53:33.512Z,55.56
2023-09-01T03:56:06.938Z,55.86
2023-09-01T03:58:33.305Z,55.60
2023-09-01T04:00:59.677Z,55.84
2023-09-01T04:03:26.079Z,55.81
2023-09-01T04:05:56.869Z,55.87
2023-09-01T04:08:23.245Z,55.97
2023-09-01T04:10:49.611Z,55.87
2023-09-01T04:13:15.946Z,55.97
2023-09-01T04:15:42.359Z,56.11
2023-09-01T04:18:08.747Z,55.96
2023-09-01T04:20:35.112Z,56.04
2023-09-01T04:23:01.457Z,56.11
2023-09-01T04:25:27.873Z,56.11
2023-09-01T04:27:54.210Z,56.01
2023-09-01T04:30:21.040Z,55.77
2023-09-01T04:32:48.010Z,55.80
2023-09-01T04:35:14.411Z,55.62
2023-09-01T04:37:40.765Z,55.50
2023-09-01T04:40:08.541Z,55.37
2023-09-01T04:42:34.891Z,55.68
2023-09-01T04:45:01.602Z,55.61
2023-09-01T04:47:28.449Z,55.46
2023-09-01T04:49:54.860Z,55.48
2023-09-01T04:52:30.049Z,55.64
2023-09-01T04:54:59.933Z,55.43
2023-09-01T04:57:26.371Z,55.35
2023-09-01T04:59:52.721Z,55.31
2023-09-01T05:02:19.081Z,55.24
2023-09-01T05:04:45.833Z,55.31
2023-09-01T05:07:12.205Z,55.12
2023-09-01T05:09:38.579Z,54.95
2023-09-01T05:12:05.210Z,54.76
2023-09-01T05:14:31.708Z,54.51
2023-09-01T05:16:58.225Z,54.71
2023-09-01T05:19:24.780Z,54.80
2023-09-01T05:21:51.406Z,55.05
2023-09-01T05:24:17.762Z,54.85
2023-09-01T05:26:44.153Z,54.80
2023-09-01T05:29:10.506Z,54.85
2023-09-01T05:31:36.935Z,54.90
2023-09-01T05:34:03.319Z,54.99
2023-09-01T05:36:29.676Z,54.91
2023-09-01T05:38:56.033Z,54.88
2023-09-01T05:41:22.398Z,54.88
2023-09-01T05:43:48.786Z,54.75
2023-09-01T05:46:15.155Z,54.76
2023-09-01T05:48:41.972Z,54.93
2023-09-01T05:51:08.357Z,55.04
2023-09-01T05:53:34.744Z,55.13
2023-09-01T05:56:01.120Z,54.75
2023-09-01T05:58:27.470Z,54.76
2023-09-01T06:00:53.861Z,54.74
2023-09-01T06:03:20.273Z,54.37
2023-09-01T06:05:46.690Z,54.23
2023-09-01T06:08:13.374Z,54.10
2023-09-01T06:10:39.903Z,53.97
2023-09-01T06:13:06.258Z,54.30
2023-09-01T06:15:32.612Z,53.99
2023-09-01T06:17:58.987Z,54.09
2023-09-01T06:20:25.402Z,54.11
2023-09-01T06:22:55.001Z,53.80
2023-09-01T06:25:21.537Z,54.42
2023-09-01T06:27:47.942Z,53.49
2023-09-01T06:30:14.279Z,54.04
2023-09-01T06:32:40.640Z,54.32
2023-09-01T06:35:07.109Z,53.53
2023-09-01T06:37:33.496Z,52.41
2023-09-01T06:39:59.824Z,52.44
2023-09-01T06:42:26.159Z,51.70
2023-09-01T06:44:52.510Z,50.65
2023-09-01T06:47:18.869Z,49.11
2023-09-01T06:49:45.268Z,49.26
2023-09-01T06:52:12.204Z,47.43
2023-09-01T06:54:38.725Z,45.48
2023-09-01T06:57:05.263Z,46.50
2023-09-01T06:59:31.648Z,43.62
2023-09-01T07:01:58.019Z,43.07
2023-09-01T07:04:25.734Z,43.29
2023-09-01T07:06:52.097Z,43.59
2023-09-01T07:09:19.666Z,41.26
2023-09-01T07:11:46.065Z,39.65
2023-09-01T07:14:15.427Z,35.29
2023-09-01T07:16:55.837Z,34.99
2023-09-01T07:22:48.779Z,29.56
2023-09-01T07:25:17.057Z,28.77
2023-09-01T07:27:43.460Z,27.86
2023-09-01T07:30:14.763Z,27.23
2023-09-01T07:32:41.629Z,26.86
2023-09-01T07:35:08.003Z,25.44
2023-09-01T07:37:34.354Z,24.94
2023-09-01T07:40:00.720Z,24.31
2023-09-01T07:42:27.074Z,24.15
2023-09-01T07:44:53.812Z,24.13
2023-09-01T07:47:20.151Z,22.43
2023-09-01T07:49:46.483Z,21.65
2023-09-01T07:52:12.828Z,20.77
2023-09-01T07:54:39.245Z,20.44
2023-09-01T07:57:05.671Z,20.43
2023-09-01T07:59:32.017Z,19.81
2023-09-01T08:01:58.442Z,19.66
2023-09-01T08:04:24.836Z,19.21
2023-09-01T08:06:51.185Z,18.96
2023-09-01T08:09:17.542Z,18.33
2023-09-01T08:11:43.904Z,18.57
2023-09-01T08:14:10.253Z,17.31
2023-09-01T08:16:36.629Z,17.36
2023-09-01T08:19:04.306Z,17.66
2023-09-01T08:21:31.790Z,17.04
2023-09-01T08:23:58.241Z,16.95
2023-09-01T08:26:24.677Z,16.98
2023-09-01T08:28:51.035Z,16.82
2023-09-01T08:31:17.491Z,16.32
2023-09-01T08:33:44.509Z,16.37
2023-09-01T08:36:10.849Z,16.13
2023-09-01T08:38:37.191Z,15.93
2023-09-01T08:41:06.689Z,15.90
2023-09-01T08:43:43.528Z,15.48
2023-09-01T08:48:39.267Z,15.28
2023-09-01T08:51:06.336Z,15.91
2023-09-01T08:53:32.955Z,14.96
2023-09-01T08:55:59.321Z,14.46
2023-09-01T08:58:25.667Z,14.60
2023-09-01T09:00:52.051Z,14.76
2023-09-01T09:03:18.455Z,14.59
2023-09-01T09:05:45.134Z,15.25
2023-09-01T09:08:11.508Z,14.71
2023-09-01T09:10:42.052Z,15.76
2023-09-01T09:13:36.430Z,16.70
2023-09-01T09:16:59.661Z,17.91
2023-09-01T09:19:26.143Z,20.02
2023-09-01T09:22:04.712Z,20.19
2023-09-01T09:24:37.811Z,21.44
2023-09-01T09:27:06.406Z,22.47
2023-09-01T09:29:40.349Z,23.21
2023-09-01T09:32:16.453Z,22.98
2023-09-01T09:34:42.805Z,23.70
2023-09-01T09:37:15.275Z,23.82
2023-09-01T09:39:42.650Z,24.58
2023-09-01T09:42:09.096Z,24.46
2023-09-01T09:44:35.816Z,24.17
2023-09-01T09:47:02.542Z,25.62
2023-09-01T09:49:31.343Z,26.95
2023-09-01T09:51:57.769Z,25.54
2023-09-01T09:54:24.130Z,25.65
2023-09-01T09:56:51.411Z,26.16
2023-09-01T09:59:19.070Z,26.71
2023-09-01T10:01:45.679Z,27.13
2023-09-01T10:04:12.632Z,27.50
2023-09-01T10:06:40.474Z,26.55
2023-09-01T10:09:06.901Z,26.91
2023-09-01T10:11:33.403Z,28.09
2023-09-01T10:13:59.802Z,28.08
2023-09-01T10:16:26.150Z,28.37
2023-09-01T10:18:53.734Z,27.68
2023-09-01T10:21:20.308Z,28.74
2023-09-01T10:23:46.936Z,27.13
2023-09-01T10:26:17.931Z,27.57
2023-09-01T10:28:54.387Z,29.09
2023-09-01T10:31:21.570Z,29.64
2023-09-01T10:33:48.012Z,30.00
2023-09-01T10:36:14.961Z,28.25
2023-09-01T10:38:42.045Z,28.45
2023-09-01T10:41:08.557Z,28.51
2023-09-01T10:43:42.939Z,29.26
2023-09-01T10:46:15.596Z,29.31
2023-09-01T10:48:48.338Z,28.76
2023-09-01T10:51:18.095Z,29.45
2023-09-01T10:53:44.694Z,29.92
2023-09-01T10:56:11.817Z,30.48
2023-09-01T10:58:38.759Z,32.71
2023-09-01T11:01:24.157Z,31.59
2023-09-01T11:03:50.577Z,30.83
2023-09-01T11:06:17.109Z,32.26
2023-09-01T11:09:00.173Z,31.56
2023-09-01T11:11:27.055Z,30.20
2023-09-01T11:14:00.098Z,29.85
2023-09-01T11:16:26.531Z,31.82
2023-09-01T11:18:59.312Z,32.32
2023-09-01T11:21:27.453Z,32.91
2023-09-01T11:24:00.226Z,32.38
2023-09-01T11:26:28.705Z,30.92
2023-09-01T11:28:56.834Z,31.24
2023-09-01T11:31:23.315Z,31.01
2023-09-01T11:33:53.227Z,31.86
2023-09-01T11:36:19.983Z,32.10
2023-09-01T11:38:46.369Z,33.23
2023-09-01T11:41:13.739Z,33.62
2023-09-01T11:43:40.603Z,31.19
2023-09-01T11:46:07.319Z,31.22
2023-09-01T11:48:33.736Z,33.70
2023-09-01T11:51:00.189Z,33.15
2023-09-01T11:53:30.263Z,32.00
2023-09-01T11:55:59.916Z,32.53
2023-09-01T11:58:27.988Z,33.11
2023-09-01T12:00:54.347Z,31.71
2023-09-01T12:03:23.945Z,32.68
2023-09-01T12:05:50.356Z,33.33
2023-09-01T12:08:16.750Z,34.19
2023-09-01T12:10:43.115Z,33.68
2023-09-01T12:13:10.220Z,32.90
2023-09-01T12:15:55.331Z,33.34
2023-09-01T12:18:31.838Z,32.95
2023-09-01T12:20:58.444Z,32.37
2023-09-01T12:23:31.575Z,33.27
2023-09-01T12:25:58.125Z,34.49
2023-09-01T12:28:25.296Z,33.15
2023-09-01T12:30:51.662Z,33.33
2023-09-01T12:33:18.351Z,32.85
2023-09-01T12:35:44.948Z,33.56
2023-09-01T12:38:11.333Z,35.70
2023-09-01T12:40:37.706Z,36.47
2023-09-01T12:43:04.239Z,32.95
2023-09-01T12:45:30.762Z,32.92
2023-09-01T12:47:57.190Z,34.22
2023-09-01T12:50:23.640Z,33.80
2023-09-01T12:52:50.015Z,35.12
2023-09-01T12:55:16.370Z,34.36
2023-09-01T12:57:42.725Z,35.33
2023-09-01T13:00:09.401Z,34.10
2023-09-01T13:02:35.809Z,34.44
2023-09-01T13:05:02.296Z,35.15
2023-09-01T13:07:28.703Z,35.13
2023-09-01T13:09:55.088Z,35.16
2023-09-01T13:12:21.458Z,33.15
2023-09-01T13:14:47.814Z,33.78
2023-09-01T13:17:14.211Z,34.60
2023-09-01T13:19:41.339Z,34.28
2023-09-01T13:22:07.744Z,35.36
2023-09-01T13:24:34.433Z,35.37
2023-09-01T13:27:00.786Z,35.43
2023-09-01T13:29:27.136Z,34.70
2023-09-01T13:31:53.539Z,33.72
2023-09-01T13:34:19.917Z,33.29
2023-09-01T13:36:46.406Z,33.70
2023-09-01T13:39:12.864Z,34.85
2023-09-01T13:41:39.248Z,34.53
2023-09-01T13:44:05.591Z,35.13
2023-09-01T13:46:32.804Z,35.23
2023-09-01T13:48:59.403Z,33.52
2023-09-01T13:51:25.857Z,35.17
2023-09-01T13:53:52.426Z,35.16
2023-09-01T13:56:18.793Z,33.33
2023-09-01T13:58:45.207Z,34.43
2023-09-01T14:01:11.684Z,34.76
2023-09-01T14:03:39.114Z,34.44
2023-09-01T14:06:05.569Z,35.39
2023-09-01T14:08:31.957Z,35.74
2023-09-01T14:10:58.786Z,35.80
2023-09-01T14:13:25.189Z,35.57
2023-09-01T14:15:52.276Z,34.31
2023-09-01T14:18:19.092Z,34.49
2023-09-01T14:20:46.219Z,35.27
2023-09-01T14:23:12.608Z,35.79
2023-09-01T14:25:38.974Z,35.38
2023-09-01T14:28:05.406Z,34.65
2023-09-01T14:30:31.806Z,34.30
2023-09-01T14:33:20.423Z,33.93
2023-09-01T14:35:51.145Z,34.05
2023-09-01T14:38:18.186Z,34.39
2023-09-01T14:40:44.543Z,34.78
2023-09-01T14:43:10.957Z,34.31
2023-09-01T14:45:38.942Z,34.92
2023-09-01T14:48:05.813Z,35.13
2023-09-01T14:50:32.181Z,35.42
2023-09-01T14:52:58.502Z,35.30
2023-09-01T14:55:24.929Z,34.99
2023-09-01T14:57:52.009Z,35.21
2023-09-01T15:00:18.377Z,35.34
2023-09-01T15:02:45.454Z,34.69
2023-09-01T15:05:11.997Z,35.44
2023-09-01T15:07:38.452Z,34.67
2023-09-01T15:10:05.197Z,34.76
2023-09-01T15:12:31.560Z,34.38
2023-09-01T15:14:57.964Z,34.36
2023-09-01T15:17:24.412Z,33.13
2023-09-01T15:19:50.773Z,34.32
2023-09-01T15:22:17.597Z,34.90
2023-09-01T15:24:44.200Z,34.68
2023-09-01T15:27:11.480Z,34.77
2023-09-01T15:29:37.873Z,34.63
2023-09-01T15:32:04.409Z,33.59
2023-09-01T15:34:34.604Z,33.88
2023-09-01T15:37:01.235Z,34.81
2023-09-01T15:39:29.315Z,35.37
2023-09-01T15:41:55.652Z,34.14
2023-09-01T15:44:22.026Z,35.06
2023-09-01T15:46:48.894Z,35.41
2023-09-01T15:49:15.240Z,35.27
2023-09-01T15:51:42.380Z,34.95
2023-09-01T15:54:08.788Z,35.10
2023-09-01T15:56:35.142Z,35.35
2023-09-01T15:59:03.779Z,35.51
2023-09-01T16:01:30.170Z,35.62
2023-09-01T16:03:59.636Z,36.23
2023-09-01T16:06:33.213Z,36.08
2023-09-01T16:09:00.104Z,36.37
2023-09-01T16:11:26.528Z,34.81
2023-09-01T16:13:54.466Z,34.98
2023-09-01T16:16:20.941Z,34.50
2023-09-01T16:18:47.379Z,35.36
2023-09-01T16:21:13.715Z,35.23
2023-09-01T16:23:40.077Z,35.71
2023-09-01T16:26:06.958Z,35.81
2023-09-01T16:28:33.342Z,35.05
2023-09-01T16:30:59.758Z,35.54
2023-09-01T16:33:26.168Z,34.98
2023-09-01T16:35:54.312Z,35.42
2023-09-01T16:38:20.773Z,34.79
2023-09-01T16:40:47.138Z,34.92
2023-09-01T16:43:13.595Z,35.52
2023-09-01T16:45:40.044Z,35.01
2023-09-01T16:48:06.569Z,34.68
2023-09-01T16:50:32.958Z,34.88
2023-09-01T16:53:00.907Z,35.32
2023-09-01T16:55:27.851Z,35.22
2023-09-01T16:57:54.194Z,34.93
2023-09-01T17:00:20.594Z,35.68
2023-09-01T17:02:46.988Z,35.84
2023-09-01T17:05:13.408Z,36.41
2023-09-01T17:07:39.766Z,35.87
2023-09-01T17:10:07.009Z,36.51
2023-09-01T17:12:33.829Z,37.05
2023-09-01T17:15:00.437Z,36.95
2023-09-01T17:17:26.928Z,37.11
2023-09-01T17:19:53.473Z,38.17
2023-09-01T17:22:19.908Z,38.99
2023-09-01T17:24:46.385Z,37.77
2023-09-01T17:27:12.761Z,38.45
2023-09-01T17:29:39.197Z,38.20
2023-09-01T17:32:05.566Z,37.91
2023-09-01T17:34:31.893Z,38.27
2023-09-01T17:36:58.250Z,38.81
2023-09-01T17:39:24.594Z,39.13
2023-09-01T17:41:50.960Z,39.66
2023-09-01T17:44:17.326Z,39.62
2023-09-01T17:46:43.684Z,39.29
2023-09-01T17:49:10.048Z,40.17
2023-09-01T17:51:36.421Z,40.72
2023-09-01T17:54:02.987Z,40.80
2023-09-01T17:56:29.346Z,41.52
2023-09-01T17:58:55.700Z,41.32
2023-09-01T18:01:22.063Z,42.36
2023-09-01T18:03:48.477Z,43.03
2023-09-01T18:06:15.768Z,43.00
2023-09-01T18:08:42.134Z,43.38
2023-09-01T18:11:16.341Z,43.68
2023-09-01T18:13:45.078Z,43.77
2023-09-01T18:16:12.193Z,43.91
2023-09-01T18:18:39.675Z,44.47
2023-09-01T18:21:06.022Z,44.53
2023-09-01T18:23:32.451Z,44.16
2023-09-01T18:26:01.605Z,44.34
2023-09-01T18:28:28.159Z,44.02
2023-09-01T18:30:54.496Z,44.15
2023-09-01T18:33:23.564Z,43.95
2023-09-01T18:35:50.918Z,44.24
2023-09-01T18:38:17.273Z,44.59
2023-09-01T18:40:43.638Z,44.89
2023-09-01T18:43:10.216Z,45.20
2023-09-01T18:45:36.667Z,45.25
2023-09-01T18:48:09.743Z,45.34
2023-09-01T18:50:42.883Z,45.58
2023-09-01T18:53:10.169Z,45.70
2023-09-01T18:55:37.329Z,45.70
2023-09-01T18:58:04.140Z,46.03
2023-09-01T19:00:30.484Z,46.35
2023-09-01T19:02:57.107Z,46.61
2023-09-01T19:05:28.776Z,47.17
2023-09-01T19:07:55.130Z,47.09
2023-09-01T19:10:22.057Z,47.15
2023-09-01T19:12:49.863Z,47.46
2023-09-01T19:15:16.232Z,47.70
2023-09-01T19:17:42.606Z,47.30
2023-09-01T19:20:44.568Z,47.47
2023-09-01T19:23:12.654Z,47.03
2023-09-01T19:25:40.572Z,46.97
2023-09-01T19:28:14.010Z,47.11
2023-09-01T19:30:47.169Z,46.99
2023-09-01T19:33:13.750Z,47.01
2023-09-01T19:35:40.234Z,47.35
2023-09-01T19:38:06.815Z,47.77
2023-09-01T19:40:33.457Z,47.61
2023-09-01T19:43:04.098Z,47.61
2023-09-01T19:45:30.524Z,47.97
2023-09-01T19:47:57.044Z,48.14
2023-09-01T19:50:24.393Z,48.31
2023-09-01T19:52:50.743Z,48.20
2023-09-01T19:55:19.050Z,48.39
2023-09-01T19:57:45.440Z,48.20
2023-09-01T20:00:12.375Z,48.52
2023-09-01T20:02:38.763Z,48.35
2023-09-01T20:05:05.685Z,48.60
2023-09-01T20:07:34.743Z,48.11
2023-09-01T20:10:01.189Z,48.54
2023-09-01T20:12:27.951Z,48.65
2023-09-01T20:14:54.288Z,48.31
2023-09-01T20:17:20.795Z,48.58
2023-09-01T20:19:47.163Z,48.27
2023-09-01T20:22:13.583Z,48.28
2023-09-01T20:24:39.968Z,48.32
2023-09-01T20:27:06.324Z,48.38
2023-09-01T20:29:32.761Z,48.58
2023-09-01T20:31:59.101Z,48.66
2023-09-01T20:34:25.721Z,48.66
2023-09-01T20:36:52.106Z,48.50
2023-09-01T20:39:18.497Z,48.50
2023-09-01T20:41:44.892Z,48.75
2023-09-01T20:44:11.253Z,48.79
2023-09-01T20:46:37.642Z,48.91
2023-09-01T20:49:04.425Z,48.95
2023-09-01T20:51:30.773Z,48.97
2023-09-01T20:53:57.225Z,48.81
2023-09-01T20:56:23.638Z,49.12
2023-09-01T20:58:50.070Z,49.16
2023-09-01T21:01:18.469Z,49.34
2023-09-01T21:03:44.883Z,49.13
2023-09-01T21:06:11.430Z,49.48
2023-09-01T21:08:38.115Z,49.18
2023-09-01T21:11:04.934Z,49.35
2023-09-01T21:13:32.257Z,49.38
2023-09-01T21:15:58.717Z,49.51
2023-09-01T21:18:25.164Z,49.21
2023-09-01T21:20:51.530Z,49.26
2023-09-01T21:23:18.378Z,49.31
2023-09-01T21:25:45.032Z,50.01
2023-09-01T21:28:11.465Z,49.80
2023-09-01T21:30:37.887Z,50.03
2023-09-01T21:33:07.306Z,50.13
2023-09-01T21:35:33.857Z,49.94
2023-09-01T21:38:00.202Z,49.94
2023-09-01T21:40:26.539Z,50.02
2023-09-01T21:42:54.100Z,50.21
2023-09-01T21:45:20.819Z,50.17
2023-09-01T21:47:47.251Z,50.26
2023-09-01T21:50:13.603Z,49.75
2023-09-01T21:52:39.963Z,50.21
2023-09-01T21:55:06.563Z,50.27
2023-09-01T21:57:34.102Z,50.56
2023-09-01T22:00:00.608Z,50.42
2023-09-01T22:02:27.189Z,50.37
2023-09-01T22:04:53.637Z,50.30
2023-09-01T22:07:19.994Z,50.55
2023-09-01T22:09:46.447Z,50.41
2023-09-01T22:12:12.804Z,50.87
2023-09-01T22:14:39.542Z,50.96
2023-09-01T22:17:06.387Z,51.10
2023-09-01T22:19:32.807Z,50.95
2023-09-01T22:21:59.226Z,51.15
2023-09-01T22:24:26.536Z,50.94
2023-09-01T22:26:53.201Z,50.92
2023-09-01T22:29:19.779Z,51.06
2023-09-01T22:31:46.195Z,51.31
2023-09-01T22:34:12.552Z,51.20
2023-09-01T22:36:38.933Z,51.31
2023-09-01T22:39:05.290Z,51.32
2023-09-01T22:41:31.650Z,51.00
2023-09-01T22:43:58.009Z,51.22
2023-09-01T22:46:26.131Z,51.15
2023-09-01T22:48:52.579Z,51.60
2023-09-01T22:51:19.005Z,51.42
2023-09-01T22:53:46.621Z,51.46
2023-09-01T22:56:13.121Z,51.53
2023-09-01T22:58:39.487Z,51.51
2023-09-01T23:01:05.912Z,51.56
2023-09-01T23:03:32.320Z,51.66
2023-09-01T23:05:58.734Z,51.66
2023-09-01T23:08:25.080Z,51.61
2023-09-01T23:10:51.442Z,51.43
2023-09-01T23:13:18.085Z,51.56
2023-09-01T23:15:45.585Z,51.67
2023-09-01T23:18:12.061Z,51.41
2023-09-01T23:20:38.434Z,51.65
2023-09-01T23:23:04.801Z,51.59
2023-09-01T23:25:34.544Z,51.93
2023-09-01T23:28:00.984Z,51.77
2023-09-01T23:30:27.344Z,51.78
2023-09-01T23:32:53.753Z,52.06
2023-09-01T23:35:20.246Z,51.93
2023-09-01T23:37:46.762Z,52.24
2023-09-01T23:40:14.860Z,52.33
2023-09-01T23:42:44.206Z,52.31
2023-09-01T23:45:10.657Z,52.40
2023-09-01T23:47:40.301Z,52.53
2023-09-01T23:50:07.539Z,52.57
2023-09-01T23:52:33.916Z,52.72
2023-09-01T23:55:00.268Z,52.74
2023-09-01T23:57:26.638Z,52.70
2023-09-01T23:59:52.972Z,52.85
